sensor_id;sensor_type;location;lat;lon;timestamp;temperature;humidity
51337;DHT22;37421;51.176;17.196;2022-10-24T00:02:20;19.40;99.90
51337;DHT22;37421;51.176;17.196;2022-10-24T00:04:49;19.40;99.90
51337;DHT22;37421;51.176;17.196;2022-10-24T00:07:18;19.40;99.90
51337;DHT22;37421;51.176;17.196;2022-10-24T00:09:44;19.30;99.90
51337;DHT22;37421;51.176;17.196;2022-10-24T00:12:10;19.40;99.90
51337;DHT22;37421;51.176;17.196;2022-10-24T00:14:36;19.30;99.90
51337;DHT22;37421;51.176;17.196;2022-10-24T00:17:03;19.40;99.90
51337;DHT22;37421;51.176;17.196;2022-10-24T00:19:29;19.40;99.90
51337;DHT22;37421;51.176;17.196;2022-10-24T00:21:55;19.40;99.90
51337;DHT22;37421;51.176;17.196;2022-10-24T00:24:21;19.40;99.90
51337;DHT22;37421;51.176;17.196;2022-10-24T00:26:47;19.40;99.90
51337;DHT22;37421;51.176;17.196;2022-10-24T00:29:13;19.30;99.90
51337;DHT22;37421;51.176;17.196;2022-10-24T00:31:39;19.30;99.90
51337;DHT22;37421;51.176;17.196;2022-10-24T00:34:30;19.30;99.90
51337;DHT22;37421;51.176;17.196;2022-10-24T00:36:55;19.30;99.90
51337;DHT22;37421;51.176;17.196;2022-10-24T00:39:22;19.30;99.90
51337;DHT22;37421;51.176;17.196;2022-10-24T00:41:48;19.30;99.90
51337;DHT22;37421;51.176;17.196;2022-10-24T00:44:21;19.30;99.90
51337;DHT22;37421;51.176;17.196;2022-10-24T00:47:04;19.30;99.90
51337;DHT22;37421;51.176;17.196;2022-10-24T00:49:50;19.30;99.90
51337;DHT22;37421;51.176;17.196;2022-10-24T00:52:23;19.30;99.90
51337;DHT22;37421;51.176;17.196;2022-10-24T00:54:50;19.30;99.90
51337;DHT22;37421;51.176;17.196;2022-10-24T01:00:16;19.30;99.90
51337;DHT22;37421;51.176;17.196;2022-10-24T01:02:44;19.30;99.90
51337;DHT22;37421;51.176;17.196;2022-10-24T01:05:14;19.30;99.90
51337;DHT22;37421;51.176;17.196;2022-10-24T01:16:11;19.30;99.90
51337;DHT22;37421;51.176;17.196;2022-10-24T01:21:42;19.30;99.90
51337;DHT22;37421;51.176;17.196;2022-10-24T01:30:17;19.30;99.90
51337;DHT22;37421;51.176;17.196;2022-10-24T01:33:05;19.30;99.90
51337;DHT22;37421;51.176;17.196;2022-10-24T01:35:39;19.30;99.90
51337;DHT22;37421;51.176;17.196;2022-10-24T01:41:07;19.30;99.90
51337;DHT22;37421;51.176;17.196;2022-10-24T01:43:51;19.30;99.90
51337;DHT22;37421;51.176;17.196;2022-10-24T01:46:21;19.20;99.90
51337;DHT22;37421;51.176;17.196;2022-10-24T01:55:38;19.20;99.90
51337;DHT22;37421;51.176;17.196;2022-10-24T01:58:06;19.20;99.90
51337;DHT22;37421;51.176;17.196;2022-10-24T02:00:32;19.20;99.90
51337;DHT22;37421;51.176;17.196;2022-10-24T02:03:03;19.20;99.90
51337;DHT22;37421;51.176;17.196;2022-10-24T02:09:12;19.20;99.90
51337;DHT22;37421;51.176;17.196;2022-10-24T02:11:40;19.20;99.90
51337;DHT22;37421;51.176;17.196;2022-10-24T02:14:27;19.20;99.90
51337;DHT22;37421;51.176;17.196;2022-10-24T02:27:00;19.20;99.90
51337;DHT22;37421;51.176;17.196;2022-10-24T02:32:33;19.20;99.90
51337;DHT22;37421;51.176;17.196;2022-10-24T02:34:59;19.20;99.90
51337;DHT22;37421;51.176;17.196;2022-10-24T02:37:28;19.20;99.90
51337;DHT22;37421;51.176;17.196;2022-10-24T02:39:56;19.20;99.90
51337;DHT22;37421;51.176;17.196;2022-10-24T02:42:25;19.20;99.90
51337;DHT22;37421;51.176;17.196;2022-10-24T02:44:53;19.20;99.90
51337;DHT22;37421;51.176;17.196;2022-10-24T02:50:32;19.20;99.90
51337;DHT22;37421;51.176;17.196;2022-10-24T02:52:59;19.20;99.90
51337;DHT22;37421;51.176;17.196;2022-10-24T02:55:25;19.20;99.90
51337;DHT22;37421;51.176;17.196;2022-10-24T02:57:51;19.10;99.90
51337;DHT22;37421;51.176;17.196;2022-10-24T03:00:17;19.10;99.90
51337;DHT22;37421;51.176;17.196;2022-10-24T03:02:43;19.40;99.90
51337;DHT22;37421;51.176;17.196;2022-10-24T03:05:09;19.40;99.90
51337;DHT22;37421;51.176;17.196;2022-10-24T03:07:38;19.30;99.90
51337;DHT22;37421;51.176;17.196;2022-10-24T03:10:05;19.30;99.90
51337;DHT22;37421;51.176;17.196;2022-10-24T03:12:31;19.30;99.90
51337;DHT22;37421;51.176;17.196;2022-10-24T03:14:56;19.30;99.90
51337;DHT22;37421;51.176;17.196;2022-10-24T03:17:22;19.30;99.90
51337;DHT22;37421;51.176;17.196;2022-10-24T03:19:48;19.30;99.90
51337;DHT22;37421;51.176;17.196;2022-10-24T03:22:14;19.30;99.90
51337;DHT22;37421;51.176;17.196;2022-10-24T03:24:40;19.30;99.90
51337;DHT22;37421;51.176;17.196;2022-10-24T03:27:06;19.30;99.90
51337;DHT22;37421;51.176;17.196;2022-10-24T03:29:32;19.30;99.90
51337;DHT22;37421;51.176;17.196;2022-10-24T03:31:58;19.30;99.90
51337;DHT22;37421;51.176;17.196;2022-10-24T03:34:26;19.30;99.90
51337;DHT22;37421;51.176;17.196;2022-10-24T03:40:06;19.20;99.90
51337;DHT22;37421;51.176;17.196;2022-10-24T03:42:32;19.20;99.90
51337;DHT22;37421;51.176;17.196;2022-10-24T03:44:59;19.20;99.90
51337;DHT22;37421;51.176;17.196;2022-10-24T03:47:40;19.20;99.90
51337;DHT22;37421;51.176;17.196;2022-10-24T03:50:07;19.20;99.90
51337;DHT22;37421;51.176;17.196;2022-10-24T03:52:33;19.20;99.90
51337;DHT22;37421;51.176;17.196;2022-10-24T03:54:59;19.20;99.90
51337;DHT22;37421;51.176;17.196;2022-10-24T03:57:25;19.20;99.90
51337;DHT22;37421;51.176;17.196;2022-10-24T03:59:51;19.30;99.90
51337;DHT22;37421;51.176;17.196;2022-10-24T04:02:17;19.30;99.90
51337;DHT22;37421;51.176;17.196;2022-10-24T04:04:43;19.10;99.90
51337;DHT22;37421;51.176;17.196;2022-10-24T04:07:09;19.20;99.90
51337;DHT22;37421;51.176;17.196;2022-10-24T04:09:35;19.30;99.90
51337;DHT22;37421;51.176;17.196;2022-10-24T04:12:01;19.20;99.90
51337;DHT22;37421;51.176;17.196;2022-10-24T04:14:27;19.30;99.90
51337;DHT22;37421;51.176;17.196;2022-10-24T04:16:53;19.30;99.90
51337;DHT22;37421;51.176;17.196;2022-10-24T04:19:19;19.30;99.90
51337;DHT22;37421;51.176;17.196;2022-10-24T04:21:45;19.40;99.90
51337;DHT22;37421;51.176;17.196;2022-10-24T04:24:12;19.60;99.90
51337;DHT22;37421;51.176;17.196;2022-10-24T04:26:39;19.70;99.90
51337;DHT22;37421;51.176;17.196;2022-10-24T04:29:05;19.80;99.90
51337;DHT22;37421;51.176;17.196;2022-10-24T04:31:31;20.00;99.90
51337;DHT22;37421;51.176;17.196;2022-10-24T04:33:57;20.10;99.90
51337;DHT22;37421;51.176;17.196;2022-10-24T04:36:23;20.30;99.90
51337;DHT22;37421;51.176;17.196;2022-10-24T04:38:49;20.40;99.90
51337;DHT22;37421;51.176;17.196;2022-10-24T04:41:15;20.30;99.90
51337;DHT22;37421;51.176;17.196;2022-10-24T04:43:41;20.30;99.90
51337;DHT22;37421;51.176;17.196;2022-10-24T04:46:07;20.30;99.90
51337;DHT22;37421;51.176;17.196;2022-10-24T04:48:33;20.30;99.90
51337;DHT22;37421;51.176;17.196;2022-10-24T04:51:00;20.30;99.90
51337;DHT22;37421;51.176;17.196;2022-10-24T04:56:39;20.30;99.90
51337;DHT22;37421;51.176;17.196;2022-10-24T04:59:05;20.40;99.90
51337;DHT22;37421;51.176;17.196;2022-10-24T05:01:31;20.40;99.90
51337;DHT22;37421;51.176;17.196;2022-10-24T05:03:56;20.40;99.90
51337;DHT22;37421;51.176;17.196;2022-10-24T05:06:22;20.40;99.90
51337;DHT22;37421;51.176;17.196;2022-10-24T05:08:48;20.40;99.90
51337;DHT22;37421;51.176;17.196;2022-10-24T05:11:14;20.40;99.90
51337;DHT22;37421;51.176;17.196;2022-10-24T05:13:46;20.50;99.90
51337;DHT22;37421;51.176;17.196;2022-10-24T05:16:12;20.50;99.90
51337;DHT22;37421;51.176;17.196;2022-10-24T05:18:41;20.50;99.90
51337;DHT22;37421;51.176;17.196;2022-10-24T05:21:07;20.50;99.90
51337;DHT22;37421;51.176;17.196;2022-10-24T05:23:33;20.50;99.90
51337;DHT22;37421;51.176;17.196;2022-10-24T05:25:59;20.50;99.90
51337;DHT22;37421;51.176;17.196;2022-10-24T05:28:26;20.50;99.90
51337;DHT22;37421;51.176;17.196;2022-10-24T05:30:51;20.40;99.90
51337;DHT22;37421;51.176;17.196;2022-10-24T05:33:17;20.40;99.90
51337;DHT22;37421;51.176;17.196;2022-10-24T05:35:43;20.40;99.90
51337;DHT22;37421;51.176;17.196;2022-10-24T05:38:09;20.40;99.90
51337;DHT22;37421;51.176;17.196;2022-10-24T05:40:35;20.40;99.90
51337;DHT22;37421;51.176;17.196;2022-10-24T05:43:01;20.40;99.90
51337;DHT22;37421;51.176;17.196;2022-10-24T05:45:28;20.40;99.90
51337;DHT22;37421;51.176;17.196;2022-10-24T05:47:53;20.30;99.90
51337;DHT22;37421;51.176;17.196;2022-10-24T05:50:20;20.30;99.90
51337;DHT22;37421;51.176;17.196;2022-10-24T05:52:46;20.30;99.90
51337;DHT22;37421;51.176;17.196;2022-10-24T05:55:12;20.20;99.90
51337;DHT22;37421;51.176;17.196;2022-10-24T05:57:38;20.30;99.90
51337;DHT22;37421;51.176;17.196;2022-10-24T06:00:07;20.20;99.90
51337;DHT22;37421;51.176;17.196;2022-10-24T06:02:33;20.20;99.90
51337;DHT22;37421;51.176;17.196;2022-10-24T06:04:59;20.20;99.90
51337;DHT22;37421;51.176;17.196;2022-10-24T06:07:25;20.20;99.90
51337;DHT22;37421;51.176;17.196;2022-10-24T06:09:51;20.20;99.90
51337;DHT22;37421;51.176;17.196;2022-10-24T06:12:26;20.20;99.90
51337;DHT22;37421;51.176;17.196;2022-10-24T06:14:59;20.20;99.90
51337;DHT22;37421;51.176;17.196;2022-10-24T06:17:25;20.30;99.90
51337;DHT22;37421;51.176;17.196;2022-10-24T06:19:51;20.30;99.90
51337;DHT22;37421;51.176;17.196;2022-10-24T06:22:18;20.30;99.90
51337;DHT22;37421;51.176;17.196;2022-10-24T06:24:44;20.30;99.90
51337;DHT22;37421;51.176;17.196;2022-10-24T06:27:10;20.20;99.90
51337;DHT22;37421;51.176;17.196;2022-10-24T06:29:36;20.20;99.90
51337;DHT22;37421;51.176;17.196;2022-10-24T06:32:02;20.20;99.90
51337;DHT22;37421;51.176;17.196;2022-10-24T06:34:28;20.20;99.90
51337;DHT22;37421;51.176;17.196;2022-10-24T06:36:54;20.20;99.90
51337;DHT22;37421;51.176;17.196;2022-10-24T06:39:23;20.20;99.90
51337;DHT22;37421;51.176;17.196;2022-10-24T06:41:49;20.20;99.90
51337;DHT22;37421;51.176;17.196;2022-10-24T06:44:15;20.20;99.90
51337;DHT22;37421;51.176;17.196;2022-10-24T06:46:44;20.10;99.90
51337;DHT22;37421;51.176;17.196;2022-10-24T06:49:13;20.10;99.90
51337;DHT22;37421;51.176;17.196;2022-10-24T06:51:40;20.10;99.90
51337;DHT22;37421;51.176;17.196;2022-10-24T06:54:35;20.10;99.90
51337;DHT22;37421;51.176;17.196;2022-10-24T06:57:04;20.10;99.90
51337;DHT22;37421;51.176;17.196;2022-10-24T06:59:29;20.10;99.90
51337;DHT22;37421;51.176;17.196;2022-10-24T07:01:55;20.10;99.90
51337;DHT22;37421;51.176;17.196;2022-10-24T07:04:24;20.10;99.90
51337;DHT22;37421;51.176;17.196;2022-10-24T07:06:50;20.10;99.90
51337;DHT22;37421;51.176;17.196;2022-10-24T07:09:16;20.10;99.90
51337;DHT22;37421;51.176;17.196;2022-10-24T07:11:43;20.10;99.90
51337;DHT22;37421;51.176;17.196;2022-10-24T07:14:10;20.10;99.90
51337;DHT22;37421;51.176;17.196;2022-10-24T07:16:36;20.10;99.90
51337;DHT22;37421;51.176;17.196;2022-10-24T07:19:04;20.20;99.90
51337;DHT22;37421;51.176;17.196;2022-10-24T07:21:31;20.10;99.90
51337;DHT22;37421;51.176;17.196;2022-10-24T07:23:58;20.20;99.90
51337;DHT22;37421;51.176;17.196;2022-10-24T07:26:25;20.20;99.90
51337;DHT22;37421;51.176;17.196;2022-10-24T07:28:53;20.20;99.90
51337;DHT22;37421;51.176;17.196;2022-10-24T07:31:22;20.20;99.90
51337;DHT22;37421;51.176;17.196;2022-10-24T07:33:48;20.20;99.90
51337;DHT22;37421;51.176;17.196;2022-10-24T07:36:17;20.20;99.90
51337;DHT22;37421;51.176;17.196;2022-10-24T07:38:47;20.20;99.90
51337;DHT22;37421;51.176;17.196;2022-10-24T07:41:14;20.20;99.90
51337;DHT22;37421;51.176;17.196;2022-10-24T07:43:40;20.20;99.90
51337;DHT22;37421;51.176;17.196;2022-10-24T07:46:08;20.20;99.90
51337;DHT22;37421;51.176;17.196;2022-10-24T07:48:38;20.30;99.90
51337;DHT22;37421;51.176;17.196;2022-10-24T07:51:09;20.30;99.90
51337;DHT22;37421;51.176;17.196;2022-10-24T07:53:35;20.30;99.90
51337;DHT22;37421;51.176;17.196;2022-10-24T07:56:01;20.40;99.90
51337;DHT22;37421;51.176;17.196;2022-10-24T07:58:30;20.40;99.90
51337;DHT22;37421;51.176;17.196;2022-10-24T08:01:12;20.40;99.90
51337;DHT22;37421;51.176;17.196;2022-10-24T08:03:38;20.40;99.90
51337;DHT22;37421;51.176;17.196;2022-10-24T08:06:10;20.50;99.90
51337;DHT22;37421;51.176;17.196;2022-10-24T08:08:41;20.60;99.90
51337;DHT22;37421;51.176;17.196;2022-10-24T08:11:09;20.60;99.90
51337;DHT22;37421;51.176;17.196;2022-10-24T08:13:36;21.00;99.90
51337;DHT22;37421;51.176;17.196;2022-10-24T08:16:05;21.10;99.90
51337;DHT22;37421;51.176;17.196;2022-10-24T08:18:31;21.20;99.90
51337;DHT22;37421;51.176;17.196;2022-10-24T08:20:59;21.20;99.90
51337;DHT22;37421;51.176;17.196;2022-10-24T08:23:25;21.20;99.90
51337;DHT22;37421;51.176;17.196;2022-10-24T08:25:52;21.20;99.90
51337;DHT22;37421;51.176;17.196;2022-10-24T08:28:18;21.20;99.90
51337;DHT22;37421;51.176;17.196;2022-10-24T08:30:44;21.20;99.90
51337;DHT22;37421;51.176;17.196;2022-10-24T08:33:10;21.20;99.90
51337;DHT22;37421;51.176;17.196;2022-10-24T08:35:36;21.20;99.90
51337;DHT22;37421;51.176;17.196;2022-10-24T08:38:05;21.20;99.90
51337;DHT22;37421;51.176;17.196;2022-10-24T08:40:37;21.30;99.90
51337;DHT22;37421;51.176;17.196;2022-10-24T08:43:07;21.30;99.90
51337;DHT22;37421;51.176;17.196;2022-10-24T08:48:25;21.30;99.90
51337;DHT22;37421;51.176;17.196;2022-10-24T08:51:12;21.50;99.90
51337;DHT22;37421;51.176;17.196;2022-10-24T08:53:45;21.50;99.90
51337;DHT22;37421;51.176;17.196;2022-10-24T08:56:15;21.50;99.90
51337;DHT22;37421;51.176;17.196;2022-10-24T08:58:50;21.50;99.90
51337;DHT22;37421;51.176;17.196;2022-10-24T09:01:34;21.50;99.90
51337;DHT22;37421;51.176;17.196;2022-10-24T09:04:06;21.40;99.90
51337;DHT22;37421;51.176;17.196;2022-10-24T09:06:36;21.40;99.90
51337;DHT22;37421;51.176;17.196;2022-10-24T09:09:32;21.50;99.90
51337;DHT22;37421;51.176;17.196;2022-10-24T09:12:09;21.60;99.90
51337;DHT22;37421;51.176;17.196;2022-10-24T09:14:41;21.20;99.90
51337;DHT22;37421;51.176;17.196;2022-10-24T09:17:15;21.10;99.90
51337;DHT22;37421;51.176;17.196;2022-10-24T09:20:06;21.10;99.90
51337;DHT22;37421;51.176;17.196;2022-10-24T09:22:40;21.00;99.90
51337;DHT22;37421;51.176;17.196;2022-10-24T09:25:16;21.00;99.90
51337;DHT22;37421;51.176;17.196;2022-10-24T09:27:47;21.10;99.90
51337;DHT22;37421;51.176;17.196;2022-10-24T09:30:17;21.10;99.90
51337;DHT22;37421;51.176;17.196;2022-10-24T09:32:53;21.10;99.90
51337;DHT22;37421;51.176;17.196;2022-10-24T09:35:26;21.20;99.90
51337;DHT22;37421;51.176;17.196;2022-10-24T09:37:57;21.20;99.90
51337;DHT22;37421;51.176;17.196;2022-10-24T09:40:25;21.20;99.90
51337;DHT22;37421;51.176;17.196;2022-10-24T09:46:01;21.20;99.90
51337;DHT22;37421;51.176;17.196;2022-10-24T09:48:48;21.20;99.90
51337;DHT22;37421;51.176;17.196;2022-10-24T09:51:32;21.20;99.90
51337;DHT22;37421;51.176;17.196;2022-10-24T09:57:03;21.30;99.90
51337;DHT22;37421;51.176;17.196;2022-10-24T09:59:48;21.30;99.90
51337;DHT22;37421;51.176;17.196;2022-10-24T10:02:26;21.30;99.90
51337;DHT22;37421;51.176;17.196;2022-10-24T10:07:35;21.30;99.90
51337;DHT22;37421;51.176;17.196;2022-10-24T10:10:05;21.30;99.90
51337;DHT22;37421;51.176;17.196;2022-10-24T10:12:40;21.30;99.90
51337;DHT22;37421;51.176;17.196;2022-10-24T10:15:23;21.30;99.90
51337;DHT22;37421;51.176;17.196;2022-10-24T10:18:01;21.30;99.90
51337;DHT22;37421;51.176;17.196;2022-10-24T10:20:43;21.30;99.90
51337;DHT22;37421;51.176;17.196;2022-10-24T10:23:27;21.30;99.90
51337;DHT22;37421;51.176;17.196;2022-10-24T10:28:40;21.40;99.90
51337;DHT22;37421;51.176;17.196;2022-10-24T10:31:10;21.40;99.90
51337;DHT22;37421;51.176;17.196;2022-10-24T10:33:43;21.40;99.90
51337;DHT22;37421;51.176;17.196;2022-10-24T10:36:30;21.40;99.90
51337;DHT22;37421;51.176;17.196;2022-10-24T10:42:05;21.40;99.90
51337;DHT22;37421;51.176;17.196;2022-10-24T10:44:46;21.30;99.90
51337;DHT22;37421;51.176;17.196;2022-10-24T10:50:38;21.40;99.90
51337;DHT22;37421;51.176;17.196;2022-10-24T10:55:51;21.50;99.90
51337;DHT22;37421;51.176;17.196;2022-10-24T11:04:57;21.80;99.90
51337;DHT22;37421;51.176;17.196;2022-10-24T11:07:49;21.80;99.90
51337;DHT22;37421;51.176;17.196;2022-10-24T11:10:27;21.90;99.90
51337;DHT22;37421;51.176;17.196;2022-10-24T11:12:55;22.00;99.90
51337;DHT22;37421;51.176;17.196;2022-10-24T11:15:29;22.00;99.90
51337;DHT22;37421;51.176;17.196;2022-10-24T11:18:05;22.10;99.90
51337;DHT22;37421;51.176;17.196;2022-10-24T11:20:34;22.10;99.90
51337;DHT22;37421;51.176;17.196;2022-10-24T11:23:11;22.00;99.90
51337;DHT22;37421;51.176;17.196;2022-10-24T11:25:47;22.00;99.90
51337;DHT22;37421;51.176;17.196;2022-10-24T11:28:39;21.90;99.90
51337;DHT22;37421;51.176;17.196;2022-10-24T11:34:16;21.90;99.90
51337;DHT22;37421;51.176;17.196;2022-10-24T11:37:04;21.90;99.90
51337;DHT22;37421;51.176;17.196;2022-10-24T11:40:27;21.90;99.90
51337;DHT22;37421;51.176;17.196;2022-10-24T11:43:20;21.90;99.90
51337;DHT22;37421;51.176;17.196;2022-10-24T11:48:36;22.20;99.90
51337;DHT22;37421;51.176;17.196;2022-10-24T11:51:13;22.20;99.90
51337;DHT22;37421;51.176;17.196;2022-10-24T11:54:01;22.20;99.90
51337;DHT22;37421;51.176;17.196;2022-10-24T11:56:47;22.10;99.90
51337;DHT22;37421;51.176;17.196;2022-10-24T11:59:19;22.00;99.90
51337;DHT22;37421;51.176;17.196;2022-10-24T12:05:13;21.90;99.90
51337;DHT22;37421;51.176;17.196;2022-10-24T12:13:48;21.80;99.90
51337;DHT22;37421;51.176;17.196;2022-10-24T12:18:50;21.90;99.90
51337;DHT22;37421;51.176;17.196;2022-10-24T12:21:24;21.90;99.90
51337;DHT22;37421;51.176;17.196;2022-10-24T12:24:04;21.90;99.90
51337;DHT22;37421;51.176;17.196;2022-10-24T12:26:34;21.90;99.90
51337;DHT22;37421;51.176;17.196;2022-10-24T12:29:02;21.90;99.90
51337;DHT22;37421;51.176;17.196;2022-10-24T12:31:36;22.00;99.90
51337;DHT22;37421;51.176;17.196;2022-10-24T12:39:35;21.90;99.90
51337;DHT22;37421;51.176;17.196;2022-10-24T12:42:02;21.90;99.90
51337;DHT22;37421;51.176;17.196;2022-10-24T12:47:04;22.00;99.90
51337;DHT22;37421;51.176;17.196;2022-10-24T12:49:42;21.90;99.90
51337;DHT22;37421;51.176;17.196;2022-10-24T12:58:33;21.90;99.90
51337;DHT22;37421;51.176;17.196;2022-10-24T13:01:27;21.90;99.90
51337;DHT22;37421;51.176;17.196;2022-10-24T13:21:47;21.00;99.90
51337;DHT22;37421;51.176;17.196;2022-10-24T13:31:48;21.30;99.90
51337;DHT22;37421;51.176;17.196;2022-10-24T13:37:29;21.20;99.90
51337;DHT22;37421;51.176;17.196;2022-10-24T13:40:16;21.20;99.90
51337;DHT22;37421;51.176;17.196;2022-10-24T13:42:51;21.30;99.90
51337;DHT22;37421;51.176;17.196;2022-10-24T13:45:41;21.30;99.90
51337;DHT22;37421;51.176;17.196;2022-10-24T13:48:15;21.10;99.90
51337;DHT22;37421;51.176;17.196;2022-10-24T13:50:48;20.90;99.90
51337;DHT22;37421;51.176;17.196;2022-10-24T13:53:21;20.90;99.90
51337;DHT22;37421;51.176;17.196;2022-10-24T13:55:49;20.80;99.90
51337;DHT22;37421;51.176;17.196;2022-10-24T13:58:21;20.80;99.90
51337;DHT22;37421;51.176;17.196;2022-10-24T14:01:07;20.80;99.90
51337;DHT22;37421;51.176;17.196;2022-10-24T14:03:35;20.90;99.90
51337;DHT22;37421;51.176;17.196;2022-10-24T14:06:11;20.80;99.90
51337;DHT22;37421;51.176;17.196;2022-10-24T14:08:47;20.90;99.90
51337;DHT22;37421;51.176;17.196;2022-10-24T14:11:21;20.70;99.90
51337;DHT22;37421;51.176;17.196;2022-10-24T14:13:59;20.70;99.90
51337;DHT22;37421;51.176;17.196;2022-10-24T14:16:28;20.80;99.90
51337;DHT22;37421;51.176;17.196;2022-10-24T14:19:21;20.70;99.90
51337;DHT22;37421;51.176;17.196;2022-10-24T14:21:48;20.80;99.90
51337;DHT22;37421;51.176;17.196;2022-10-24T14:24:19;20.80;99.90
51337;DHT22;37421;51.176;17.196;2022-10-24T14:26:47;20.70;99.90
51337;DHT22;37421;51.176;17.196;2022-10-24T14:29:28;20.70;99.90
51337;DHT22;37421;51.176;17.196;2022-10-24T14:32:04;20.60;99.90
51337;DHT22;37421;51.176;17.196;2022-10-24T14:34:35;20.70;99.90
51337;DHT22;37421;51.176;17.196;2022-10-24T14:37:07;20.80;99.90
51337;DHT22;37421;51.176;17.196;2022-10-24T14:39:36;20.80;99.90
51337;DHT22;37421;51.176;17.196;2022-10-24T14:42:03;20.80;99.90
51337;DHT22;37421;51.176;17.196;2022-10-24T14:44:29;20.70;99.90
51337;DHT22;37421;51.176;17.196;2022-10-24T14:47:05;20.80;99.90
51337;DHT22;37421;51.176;17.196;2022-10-24T14:49:37;20.90;99.90
51337;DHT22;37421;51.176;17.196;2022-10-24T14:52:15;20.90;99.90
51337;DHT22;37421;51.176;17.196;2022-10-24T14:54:49;20.80;99.90
51337;DHT22;37421;51.176;17.196;2022-10-24T14:57:19;20.90;99.90
51337;DHT22;37421;51.176;17.196;2022-10-24T14:59:52;20.90;99.90
51337;DHT22;37421;51.176;17.196;2022-10-24T15:02:44;20.80;99.90
51337;DHT22;37421;51.176;17.196;2022-10-24T15:10:41;20.90;99.90
51337;DHT22;37421;51.176;17.196;2022-10-24T15:13:14;21.00;99.90
51337;DHT22;37421;51.176;17.196;2022-10-24T15:15:48;21.00;99.90
51337;DHT22;37421;51.176;17.196;2022-10-24T15:20:51;21.00;99.90
51337;DHT22;37421;51.176;17.196;2022-10-24T15:23:31;21.00;99.90
51337;DHT22;37421;51.176;17.196;2022-10-24T15:28:42;20.90;99.90
51337;DHT22;37421;51.176;17.196;2022-10-24T15:31:11;20.90;99.90
51337;DHT22;37421;51.176;17.196;2022-10-24T15:33:37;20.90;99.90
51337;DHT22;37421;51.176;17.196;2022-10-24T15:36:04;21.00;99.90
51337;DHT22;37421;51.176;17.196;2022-10-24T15:38:30;20.90;99.90
51337;DHT22;37421;51.176;17.196;2022-10-24T15:40:56;21.00;99.90
51337;DHT22;37421;51.176;17.196;2022-10-24T15:43:23;21.00;99.90
51337;DHT22;37421;51.176;17.196;2022-10-24T15:45:49;21.00;99.90
51337;DHT22;37421;51.176;17.196;2022-10-24T15:48:19;21.00;99.90
51337;DHT22;37421;51.176;17.196;2022-10-24T15:51:21;21.00;99.90
51337;DHT22;37421;51.176;17.196;2022-10-24T15:53:48;21.00;99.90
51337;DHT22;37421;51.176;17.196;2022-10-24T15:56:15;20.90;99.90
51337;DHT22;37421;51.176;17.196;2022-10-24T15:58:42;20.90;99.90
51337;DHT22;37421;51.176;17.196;2022-10-24T16:01:26;20.90;99.90
51337;DHT22;37421;51.176;17.196;2022-10-24T16:03:53;20.90;99.90
51337;DHT22;37421;51.176;17.196;2022-10-24T16:06:20;20.90;99.90
51337;DHT22;37421;51.176;17.196;2022-10-24T16:11:36;20.90;99.90
51337;DHT22;37421;51.176;17.196;2022-10-24T16:14:02;21.00;99.90
51337;DHT22;37421;51.176;17.196;2022-10-24T16:16:29;21.00;99.90
51337;DHT22;37421;51.176;17.196;2022-10-24T16:18:57;21.00;99.90
51337;DHT22;37421;51.176;17.196;2022-10-24T16:21:26;21.00;99.90
51337;DHT22;37421;51.176;17.196;2022-10-24T16:23:52;21.00;99.90
51337;DHT22;37421;51.176;17.196;2022-10-24T16:26:19;20.90;99.90
51337;DHT22;37421;51.176;17.196;2022-10-24T16:28:58;20.90;99.90
51337;DHT22;37421;51.176;17.196;2022-10-24T16:31:24;20.90;99.90
51337;DHT22;37421;51.176;17.196;2022-10-24T16:33:51;20.90;99.90
51337;DHT22;37421;51.176;17.196;2022-10-24T16:39:27;20.90;99.90
51337;DHT22;37421;51.176;17.196;2022-10-24T16:45:00;20.90;99.90
51337;DHT22;37421;51.176;17.196;2022-10-24T16:47:28;20.90;99.90
51337;DHT22;37421;51.176;17.196;2022-10-24T16:49:55;20.90;99.90
51337;DHT22;37421;51.176;17.196;2022-10-24T16:52:22;20.90;99.90
51337;DHT22;37421;51.176;17.196;2022-10-24T16:54:48;21.00;99.90
51337;DHT22;37421;51.176;17.196;2022-10-24T16:57:15;21.00;99.90
51337;DHT22;37421;51.176;17.196;2022-10-24T16:59:41;21.00;99.90
51337;DHT22;37421;51.176;17.196;2022-10-24T17:02:09;20.90;99.90
51337;DHT22;37421;51.176;17.196;2022-10-24T17:04:36;20.90;99.90
51337;DHT22;37421;51.176;17.196;2022-10-24T17:07:02;20.90;99.90
51337;DHT22;37421;51.176;17.196;2022-10-24T17:09:29;21.00;99.90
51337;DHT22;37421;51.176;17.196;2022-10-24T17:12:21;20.90;99.90
51337;DHT22;37421;51.176;17.196;2022-10-24T17:14:48;21.00;99.90
51337;DHT22;37421;51.176;17.196;2022-10-24T17:17:14;20.90;99.90
51337;DHT22;37421;51.176;17.196;2022-10-24T17:19:40;21.00;99.90
51337;DHT22;37421;51.176;17.196;2022-10-24T17:22:06;21.00;99.90
51337;DHT22;37421;51.176;17.196;2022-10-24T17:24:32;21.00;99.90
51337;DHT22;37421;51.176;17.196;2022-10-24T17:26:59;21.00;99.90
51337;DHT22;37421;51.176;17.196;2022-10-24T17:31:56;21.00;99.90
51337;DHT22;37421;51.176;17.196;2022-10-24T17:34:23;21.00;99.90
51337;DHT22;37421;51.176;17.196;2022-10-24T17:37:18;21.00;99.90
51337;DHT22;37421;51.176;17.196;2022-10-24T17:42:14;20.90;99.90
51337;DHT22;37421;51.176;17.196;2022-10-24T17:44:40;20.90;99.90
51337;DHT22;37421;51.176;17.196;2022-10-24T17:47:06;20.90;99.90
51337;DHT22;37421;51.176;17.196;2022-10-24T17:49:32;20.90;99.90
51337;DHT22;37421;51.176;17.196;2022-10-24T17:51:58;20.90;99.90
51337;DHT22;37421;51.176;17.196;2022-10-24T17:54:24;21.00;99.90
51337;DHT22;37421;51.176;17.196;2022-10-24T17:56:50;20.90;99.90
51337;DHT22;37421;51.176;17.196;2022-10-24T17:59:16;20.80;99.90
51337;DHT22;37421;51.176;17.196;2022-10-24T18:01:42;20.90;99.90
51337;DHT22;37421;51.176;17.196;2022-10-24T18:04:08;20.90;99.90
51337;DHT22;37421;51.176;17.196;2022-10-24T18:06:34;20.90;99.90
51337;DHT22;37421;51.176;17.196;2022-10-24T18:09:00;20.90;99.90
51337;DHT22;37421;51.176;17.196;2022-10-24T18:11:26;20.90;99.90
51337;DHT22;37421;51.176;17.196;2022-10-24T18:13:52;20.80;99.90
51337;DHT22;37421;51.176;17.196;2022-10-24T18:16:19;20.80;99.90
51337;DHT22;37421;51.176;17.196;2022-10-24T18:18:47;20.80;99.90
51337;DHT22;37421;51.176;17.196;2022-10-24T18:21:19;20.90;99.90
51337;DHT22;37421;51.176;17.196;2022-10-24T18:23:51;20.90;99.90
51337;DHT22;37421;51.176;17.196;2022-10-24T18:26:21;20.90;99.90
51337;DHT22;37421;51.176;17.196;2022-10-24T18:28:49;21.00;99.90